createdAt,value
2022-12-01T00:01:15.313Z,-0.10
2022-12-01T00:03:42.176Z,-0.10
2022-12-01T00:06:18.065Z,-0.10
2022-12-01T00:09:06.183Z,-0.20
2022-12-01T00:11:34.882Z,-0.20
2022-12-01T00:14:02.108Z,-0.20
2022-12-01T00:16:29.450Z,-0.20
2022-12-01T00:18:56.546Z,-0.30
2022-12-01T00:21:25.051Z,-0.40
2022-12-01T00:23:55.146Z,-0.50
2022-12-01T00:26:22.676Z,-0.40
2022-12-01T00:28:54.556Z,-0.30
2022-12-01T00:31:22.516Z,-0.30
2022-12-01T00:33:49.640Z,-0.20
2022-12-01T00:36:16.596Z,-0.30
2022-12-01T00:38:43.504Z,-0.30
2022-12-01T00:41:10.438Z,-0.20
2022-12-01T00:43:37.392Z,-0.30
2022-12-01T00:46:04.438Z,-0.30
2022-12-01T00:48:31.572Z,-0.40
2022-12-01T00:50:58.475Z,-0.40
2022-12-01T00:53:25.460Z,-0.40
2022-12-01T00:55:54.222Z,-0.30
2022-12-01T00:58:22.362Z,-0.20
2022-12-01T01:00:49.790Z,-0.20
2022-12-01T01:03:17.008Z,-0.20
2022-12-01T01:05:44.393Z,-0.20
2022-12-01T01:08:13.568Z,-0.10
2022-12-01T01:10:41.586Z,-0.10
2022-12-01T01:13:09.120Z,-0.20
2022-12-01T01:15:36.179Z,-0.30
2022-12-01T01:18:03.573Z,-0.30
2022-12-01T01:20:30.474Z,-0.30
2022-12-01T01:22:57.610Z,-0.30
2022-12-01T01:25:24.796Z,-0.30
2022-12-01T01:27:52.037Z,-0.30
2022-12-01T01:30:19.244Z,-0.30
2022-12-01T01:32:46.231Z,-0.40
2022-12-01T01:35:13.409Z,-0.30
2022-12-01T01:37:40.374Z,-0.30
2022-12-01T01:40:07.783Z,-0.40
2022-12-01T01:42:34.757Z,-0.30
2022-12-01T01:45:01.629Z,-0.30
2022-12-01T01:47:36.618Z,-0.30
2022-12-01T01:50:09.328Z,-0.20
2022-12-01T01:52:43.943Z,-0.20
2022-12-01T01:55:12.399Z,-0.20
2022-12-01T01:57:39.978Z,-0.30
2022-12-01T02:00:19.118Z,-0.30
2022-12-01T02:02:47.368Z,-0.30
2022-12-01T02:05:24.016Z,-0.20
2022-12-01T02:07:53.743Z,-0.20
2022-12-01T02:10:23.981Z,-0.30
2022-12-01T02:13:04.159Z,-0.30
2022-12-01T02:16:01.415Z,-0.30
2022-12-01T02:18:42.985Z,-0.40
2022-12-01T02:21:36.352Z,-0.50
2022-12-01T02:24:24.108Z,-0.50
2022-12-01T02:27:01.634Z,-0.50
2022-12-01T02:29:34.435Z,-0.60
2022-12-01T02:32:07.135Z,-0.50
2022-12-01T02:34:56.820Z,-0.50
2022-12-01T02:37:34.440Z,-0.30
2022-12-01T02:40:14.473Z,-0.30
2022-12-01T02:43:05.574Z,-0.40
2022-12-01T02:45:49.098Z,-0.30
2022-12-01T02:48:29.738Z,-0.30
2022-12-01T02:51:01.355Z,-0.30
2022-12-01T02:53:28.522Z,-0.30
2022-12-01T02:55:58.110Z,-0.30
2022-12-01T02:58:25.128Z,-0.30
2022-12-01T03:01:23.089Z,-0.30
2022-12-01T03:04:21.362Z,-0.30
2022-12-01T03:07:15.641Z,-0.30
2022-12-01T03:10:13.657Z,-0.30
2022-12-01T03:13:07.931Z,-0.30
2022-12-01T03:15:49.058Z,-0.40
2022-12-01T03:18:24.755Z,-0.40
2022-12-01T03:21:11.145Z,-0.30
2022-12-01T03:23:45.706Z,-0.30
2022-12-01T03:26:17.488Z,-0.30
2022-12-01T03:28:49.922Z,-0.40
2022-12-01T03:31:20.998Z,-0.30
2022-12-01T03:33:54.884Z,-0.40
2022-12-01T03:36:33.676Z,-0.40
2022-12-01T03:39:04.875Z,-0.40
2022-12-01T03:41:45.634Z,-0.30
2022-12-01T03:44:21.120Z,-0.40
2022-12-01T03:46:50.285Z,-0.50
2022-12-01T03:49:19.368Z,-0.50
2022-12-01T03:52:04.587Z,-0.50
2022-12-01T03:54:55.577Z,-0.50
2022-12-01T03:57:31.771Z,-0.50
2022-12-01T03:59:58.760Z,-0.50
2022-12-01T04:02:28.562Z,-0.60
2022-12-01T04:04:55.586Z,-0.60
2022-12-01T04:07:23.614Z,-0.60
2022-12-01T04:09:50.878Z,-0.60
2022-12-01T04:12:29.929Z,-0.70
2022-12-01T04:15:02.336Z,-0.60
2022-12-01T04:17:29.660Z,-0.60
2022-12-01T04:19:56.733Z,-0.50
2022-12-01T04:22:24.363Z,-0.50
2022-12-01T04:24:51.520Z,-0.60
2022-12-01T04:27:18.793Z,-0.60
2022-12-01T04:29:45.863Z,-0.60
2022-12-01T04:32:13.885Z,-0.50
2022-12-01T04:34:41.580Z,-0.50
2022-12-01T04:37:10.234Z,-0.50
2022-12-01T04:39:37.272Z,-0.50
2022-12-01T04:42:05.210Z,-0.50
2022-12-01T04:44:34.955Z,-0.60
2022-12-01T04:47:04.009Z,-0.60
2022-12-01T04:49:31.510Z,-0.70
2022-12-01T04:51:58.669Z,-0.60
2022-12-01T04:54:27.152Z,-0.60
2022-12-01T04:56:54.113Z,-0.60
2022-12-01T04:59:21.108Z,-0.40
2022-12-01T05:01:48.566Z,-0.50
2022-12-01T05:04:16.048Z,-0.50
2022-12-01T05:06:43.476Z,-0.60
2022-12-01T05:09:17.413Z,-0.60
2022-12-01T05:11:44.987Z,-0.60
2022-12-01T05:14:11.951Z,-0.60
2022-12-01T05:16:39.330Z,-0.60
2022-12-01T05:19:29.026Z,-0.60
2022-12-01T05:21:56.515Z,-0.60
2022-12-01T05:24:23.815Z,-0.70
2022-12-01T05:26:50.787Z,-0.80
2022-12-01T05:29:18.096Z,-0.70
2022-12-01T05:31:46.334Z,-0.80
2022-12-01T05:34:34.984Z,-0.70
2022-12-01T05:37:02.050Z,-0.70
2022-12-01T05:39:29.107Z,-0.80
2022-12-01T05:41:56.292Z,-0.80
2022-12-01T05:44:26.258Z,-0.80
2022-12-01T05:46:53.298Z,-0.80
2022-12-01T05:49:24.279Z,-0.90
2022-12-01T05:54:41.711Z,-0.80
2022-12-01T05:58:08.138Z,-0.90
2022-12-01T06:04:42.066Z,-0.90
2022-12-01T06:13:17.913Z,-1.10
2022-12-01T06:15:47.408Z,-1.30
2022-12-01T06:18:17.402Z,-1.30
2022-12-01T06:20:47.401Z,-1.20
2022-12-01T06:23:14.534Z,-1.30
2022-12-01T06:25:42.411Z,-1.30
2022-12-01T06:28:09.785Z,-1.40
2022-12-01T06:30:37.463Z,-1.20
2022-12-01T06:33:15.460Z,-1.20
2022-12-01T06:35:46.211Z,-1.30
2022-12-01T06:38:13.723Z,-1.20
2022-12-01T06:40:42.632Z,-1.20
2022-12-01T06:43:10.473Z,-1.20
2022-12-01T06:45:38.008Z,-1.30
2022-12-01T06:48:07.048Z,-1.30
2022-12-01T06:50:36.793Z,-1.20
2022-12-01T07:02:58.621Z,-1.40
2022-12-01T07:05:34.649Z,-1.40
2022-12-01T07:08:23.983Z,-1.40
2022-12-01T07:11:29.235Z,-1.50
2022-12-01T07:14:34.192Z,-1.50
2022-12-01T07:17:15.706Z,-1.50
2022-12-01T07:19:52.011Z,-1.50
2022-12-01T07:22:32.395Z,-1.60
2022-12-01T07:25:07.373Z,-1.60
2022-12-01T07:28:03.451Z,-1.60
2022-12-01T07:30:50.130Z,-1.50
2022-12-01T07:36:11.355Z,-1.50
2022-12-01T07:39:10.866Z,-1.60
2022-12-01T07:45:21.160Z,-1.50
2022-12-01T07:47:53.445Z,-1.50
2022-12-01T07:50:32.067Z,-1.50
2022-12-01T08:06:47.971Z,-1.20
2022-12-01T08:09:21.998Z,-1.20
2022-12-01T08:16:18.317Z,-1.20
2022-12-01T08:26:17.637Z,-1.00
2022-12-01T08:28:48.465Z,-1.00
2022-12-01T08:31:24.709Z,-0.90
2022-12-01T08:33:54.867Z,-0.90
2022-12-01T08:36:45.050Z,-0.90
2022-12-01T08:39:17.111Z,-0.90
2022-12-01T08:41:52.802Z,-0.90
2022-12-01T08:44:44.173Z,-0.80
2022-12-01T08:47:18.938Z,-0.90
2022-12-01T08:53:30.221Z,-1.00
2022-12-01T08:57:00.026Z,-1.00
2022-12-01T09:02:27.433Z,-0.70
2022-12-01T09:04:57.963Z,-0.80
2022-12-01T09:08:27.581Z,-0.80
2022-12-01T09:14:31.808Z,-0.90
2022-12-01T09:20:33.509Z,-0.90
2022-12-01T09:23:51.426Z,-1.00
2022-12-01T09:27:10.975Z,-0.90
2022-12-01T09:29:57.187Z,-0.90
2022-12-01T09:32:42.173Z,-0.90
2022-12-01T09:35:30.552Z,-0.90
2022-12-01T09:39:04.893Z,-0.90
2022-12-01T09:41:57.368Z,-0.90
2022-12-01T09:45:20.666Z,-1.00
2022-12-01T09:48:02.704Z,-1.10
2022-12-01T09:56:59.829Z,-1.00
2022-12-01T10:00:04.844Z,-1.20
2022-12-01T10:02:45.835Z,-1.10
2022-12-01T10:05:18.638Z,-1.10
2022-12-01T10:07:58.300Z,-1.00
2022-12-01T10:11:15.390Z,-1.00
2022-12-01T10:13:45.617Z,-0.90
2022-12-01T10:16:30.613Z,-0.80
2022-12-01T10:19:25.992Z,-1.00
2022-12-01T10:22:37.105Z,-0.90
2022-12-01T10:25:58.773Z,-0.80
2022-12-01T10:28:55.164Z,-0.90
2022-12-01T10:35:16.077Z,-0.70
2022-12-01T10:37:55.200Z,-0.90
2022-12-01T10:40:40.364Z,-0.60
2022-12-01T10:57:02.973Z,-0.80
2022-12-01T10:59:49.623Z,-0.90
2022-12-01T11:03:09.749Z,-0.90
2022-12-01T11:05:54.075Z,-0.80
2022-12-01T11:12:52.806Z,-0.50
2022-12-01T11:23:24.102Z,-0.70
2022-12-01T11:52:59.087Z,-0.60
2022-12-01T11:59:38.271Z,-0.80
2022-12-01T12:02:32.534Z,-0.90
2022-12-01T12:05:09.503Z,-0.90
2022-12-01T12:08:11.574Z,-0.90
2022-12-01T12:10:54.292Z,-0.90
2022-12-01T12:13:48.156Z,-1.00
2022-12-01T12:16:50.865Z,-1.20
2022-12-01T12:19:34.067Z,-1.30
2022-12-01T12:22:35.777Z,-1.20
2022-12-01T12:25:44.206Z,-1.10
2022-12-01T12:28:39.021Z,-1.10
2022-12-01T12:32:18.513Z,-1.00
2022-12-01T12:34:57.530Z,-1.10
2022-12-01T12:38:01.524Z,-1.10
2022-12-01T12:41:07.091Z,-1.20
2022-12-01T12:43:57.347Z,-1.20
2022-12-01T12:47:08.884Z,-1.10
2022-12-01T12:49:50.781Z,-1.10
2022-12-01T12:52:53.756Z,-1.20
2022-12-01T12:55:33.527Z,-1.20
2022-12-01T12:58:33.569Z,-1.10
2022-12-01T13:01:46.404Z,-1.30
2022-12-01T13:04:33.332Z,-1.20
2022-12-01T13:07:25.786Z,-1.20
2022-12-01T13:10:41.141Z,-1.40
2022-12-01T13:13:23.289Z,-1.50
2022-12-01T13:15:54.806Z,-1.50
2022-12-01T13:18:49.066Z,-1.50
2022-12-01T13:21:20.584Z,-1.60
2022-12-01T13:23:50.184Z,-1.70
2022-12-01T13:26:25.073Z,-1.80
2022-12-01T13:28:58.427Z,-1.80
2022-12-01T13:31:25.802Z,-1.90
2022-12-01T13:34:01.922Z,-1.90
2022-12-01T13:36:46.331Z,-1.90
2022-12-01T13:39:36.531Z,-1.80
2022-12-01T13:42:08.320Z,-2.00
2022-12-01T13:44:42.281Z,-1.90
2022-12-01T13:47:15.068Z,-1.90
2022-12-01T13:49:50.828Z,-1.90
2022-12-01T13:52:29.056Z,-1.80
2022-12-01T13:55:04.490Z,-1.90
2022-12-01T13:57:38.809Z,-1.80
2022-12-01T14:00:24.591Z,-1.90
2022-12-01T14:03:13.765Z,-1.90
2022-12-01T14:05:40.792Z,-1.80
2022-12-01T14:08:28.790Z,-1.80
2022-12-01T14:11:23.806Z,-1.80
2022-12-01T14:14:00.999Z,-1.70
2022-12-01T14:17:04.056Z,-1.80
2022-12-01T14:19:37.841Z,-1.70
2022-12-01T14:22:08.342Z,-1.60
2022-12-01T14:24:39.050Z,-1.70
2022-12-01T14:27:07.981Z,-1.70
2022-12-01T14:29:43.821Z,-1.80
2022-12-01T14:32:16.973Z,-1.90
2022-12-01T14:34:45.418Z,-2.00
2022-12-01T14:37:20.379Z,-2.00
2022-12-01T14:39:57.367Z,-2.00
2022-12-01T14:42:42.792Z,-2.00
2022-12-01T14:45:15.351Z,-1.90
2022-12-01T14:47:52.844Z,-1.90
2022-12-01T14:50:32.315Z,-1.90
2022-12-01T14:53:24.742Z,-2.00
2022-12-01T14:56:11.589Z,-2.00
2022-12-01T14:58:38.993Z,-2.00
2022-12-01T15:01:10.085Z,-2.10
2022-12-01T15:03:45.488Z,-2.20
2022-12-01T15:06:23.930Z,-2.10
2022-12-01T15:12:03.688Z,-2.10
2022-12-01T15:14:49.999Z,-2.20
2022-12-01T15:17:37.134Z,-2.30
2022-12-01T15:20:25.343Z,-2.20
2022-12-01T15:22:53.407Z,-2.30
2022-12-01T15:25:20.889Z,-2.40
2022-12-01T15:28:13.538Z,-2.20
2022-12-01T15:30:42.901Z,-2.20
2022-12-01T15:33:36.978Z,-2.20
2022-12-01T15:36:07.019Z,-2.20
2022-12-01T15:38:38.931Z,-2.30
2022-12-01T15:44:05.526Z,-2.40
2022-12-01T15:46:37.253Z,-2.60
2022-12-01T15:49:30.172Z,-2.70
2022-12-01T15:52:09.881Z,-2.70
2022-12-01T15:54:38.059Z,-2.80
2022-12-01T15:57:06.968Z,-2.90
2022-12-01T15:59:42.142Z,-2.90
2022-12-01T16:02:32.110Z,-2.90
2022-12-01T16:05:04.721Z,-2.80
2022-12-01T16:08:11.065Z,-2.90
2022-12-01T16:10:36.868Z,-2.90
2022-12-01T16:13:42.251Z,-3.00
2022-12-01T16:16:41.961Z,-3.10
2022-12-01T16:19:13.264Z,-3.20
2022-12-01T16:22:11.754Z,-3.30
2022-12-01T16:24:54.816Z,-3.40
2022-12-01T16:27:27.496Z,-3.40
2022-12-01T16:30:02.074Z,-3.40
2022-12-01T16:32:40.859Z,-3.50
2022-12-01T16:35:21.247Z,-3.50
2022-12-01T16:37:49.271Z,-3.50
2022-12-01T16:40:20.617Z,-3.60
2022-12-01T16:42:51.501Z,-3.60
2022-12-01T16:45:20.295Z,-3.70
2022-12-01T16:47:49.884Z,-3.60
2022-12-01T16:50:20.789Z,-3.50
2022-12-01T16:52:48.108Z,-3.70
2022-12-01T16:55:27.837Z,-3.80
2022-12-01T16:57:55.929Z,-3.80
2022-12-01T17:00:26.269Z,-4.00
2022-12-01T17:02:54.434Z,-4.00
2022-12-01T17:05:24.832Z,-3.90
2022-12-01T17:07:53.279Z,-3.80
2022-12-01T17:10:21.658Z,-3.80
2022-12-01T17:12:49.581Z,-3.80
2022-12-01T17:15:18.462Z,-3.90
2022-12-01T17:17:45.882Z,-3.90
2022-12-01T17:20:13.987Z,-3.90
2022-12-01T17:22:44.772Z,-3.90
2022-12-01T17:25:13.404Z,-3.80
2022-12-01T17:27:42.089Z,-3.80
2022-12-01T17:30:12.607Z,-3.80
2022-12-01T17:32:40.307Z,-3.90
2022-12-01T17:35:12.392Z,-4.00
2022-12-01T17:37:40.732Z,-3.90
2022-12-01T17:40:11.576Z,-3.80
2022-12-01T17:42:39.384Z,-3.90
2022-12-01T17:45:19.333Z,-3.80
2022-12-01T17:47:49.401Z,-3.80
2022-12-01T17:50:21.154Z,-3.80
2022-12-01T18:04:22.115Z,-3.70
2022-12-01T18:15:05.063Z,-3.80
2022-12-01T18:20:32.437Z,-3.80
2022-12-01T18:25:51.892Z,-4.10
2022-12-01T18:28:29.396Z,-4.10
2022-12-01T18:31:12.658Z,-4.10
2022-12-01T18:33:44.562Z,-4.20
2022-12-01T18:36:26.144Z,-4.30
2022-12-01T18:39:11.843Z,-4.20
2022-12-01T18:41:52.593Z,-4.20
2022-12-01T18:44:20.325Z,-4.20
2022-12-01T18:47:00.196Z,-4.20
2022-12-01T18:49:37.389Z,-4.40
2022-12-01T18:52:16.261Z,-4.30
2022-12-01T18:54:54.451Z,-4.40
2022-12-01T19:00:18.526Z,-4.30
2022-12-01T19:05:38.627Z,-4.20
2022-12-01T19:08:08.927Z,-4.20
2022-12-01T19:10:46.226Z,-4.20
2022-12-01T19:13:18.614Z,-4.30
2022-12-01T19:15:50.421Z,-4.30
2022-12-01T19:18:22.427Z,-4.20
2022-12-01T19:20:51.625Z,-4.30
2022-12-01T19:23:22.062Z,-4.40
2022-12-01T19:36:40.873Z,-4.40
2022-12-01T19:39:22.762Z,-4.40
2022-12-01T19:42:03.168Z,-4.50
2022-12-01T19:47:14.685Z,-4.70
2022-12-01T19:49:47.899Z,-4.70
2022-12-01T19:52:19.907Z,-4.70
2022-12-01T19:54:49.739Z,-4.70
2022-12-01T19:57:21.684Z,-4.60
2022-12-01T19:59:51.009Z,-4.60
2022-12-01T20:02:28.940Z,-4.80
2022-12-01T20:05:04.341Z,-4.70
2022-12-01T20:07:35.739Z,-4.60
2022-12-01T20:10:03.095Z,-4.80
2022-12-01T20:12:30.489Z,-4.80
2022-12-01T20:15:06.978Z,-4.70
2022-12-01T20:17:40.152Z,-4.70
2022-12-01T20:20:10.695Z,-4.80
2022-12-01T20:22:40.074Z,-4.80
2022-12-01T20:25:11.288Z,-4.80
2022-12-01T20:27:38.883Z,-4.80
2022-12-01T20:30:07.218Z,-4.80
2022-12-01T20:32:34.800Z,-4.80
2022-12-01T20:35:03.870Z,-4.80
2022-12-01T20:37:33.419Z,-4.80
2022-12-01T20:40:01.405Z,-4.90
2022-12-01T20:42:28.937Z,-4.80
2022-12-01T20:47:36.752Z,-5.10
2022-12-01T20:50:06.883Z,-5.10
2022-12-01T20:52:34.656Z,-5.10
2022-12-01T20:55:02.372Z,-5.00
2022-12-01T20:57:30.177Z,-5.10
2022-12-01T20:59:57.316Z,-5.10
2022-12-01T21:02:24.507Z,-5.10
2022-12-01T21:04:56.351Z,-4.90
2022-12-01T21:07:26.515Z,-5.20
2022-12-01T21:09:53.708Z,-5.10
2022-12-01T21:12:39.658Z,-5.20
2022-12-01T21:15:18.043Z,-5.10
2022-12-01T21:17:55.639Z,-5.10
2022-12-01T21:20:32.164Z,-5.00
2022-12-01T21:23:06.835Z,-5.10
2022-12-01T21:25:35.157Z,-5.10
2022-12-01T21:28:14.190Z,-5.10
2022-12-01T21:30:41.356Z,-4.90
2022-12-01T21:33:31.850Z,-5.20
2022-12-01T21:36:01.789Z,-5.10
2022-12-01T21:38:32.042Z,-5.20
2022-12-01T21:41:00.483Z,-5.20
2022-12-01T21:43:27.909Z,-5.10
2022-12-01T21:46:10.517Z,-5.20
2022-12-01T21:48:39.004Z,-5.20
2022-12-01T21:51:25.643Z,-5.20
2022-12-01T21:53:56.015Z,-5.20
2022-12-01T21:56:29.108Z,-5.40
2022-12-01T21:59:02.955Z,-5.30
2022-12-01T22:01:33.734Z,-5.30
2022-12-01T22:04:06.467Z,-5.30
2022-12-01T22:06:38.735Z,-5.30
2022-12-01T22:09:27.205Z,-5.20
2022-12-01T22:12:13.450Z,-5.10
2022-12-01T22:14:40.792Z,-5.30
2022-12-01T22:17:08.300Z,-5.20
2022-12-01T22:19:41.601Z,-5.20
2022-12-01T22:22:14.758Z,-5.20
2022-12-01T22:24:45.499Z,-5.20
2022-12-01T22:27:29.241Z,-5.10
2022-12-01T22:30:02.624Z,-5.00
2022-12-01T22:33:04.455Z,-4.80
2022-12-01T22:35:43.526Z,-4.90
2022-12-01T22:38:21.884Z,-4.90
2022-12-01T22:40:49.633Z,-5.10
2022-12-01T22:43:16.820Z,-5.00
2022-12-01T22:45:50.395Z,-5.00
2022-12-01T22:48:39.157Z,-5.00
2022-12-01T22:51:22.839Z,-5.10
2022-12-01T22:53:53.793Z,-5.20
2022-12-01T22:56:27.069Z,-5.10
2022-12-01T22:58:54.868Z,-5.10
2022-12-01T23:01:31.376Z,-5.00
2022-12-01T23:04:13.299Z,-5.00
2022-12-01T23:06:53.494Z,-5.00
2022-12-01T23:09:29.650Z,-5.00
2022-12-01T23:12:00.100Z,-5.00
2022-12-01T23:14:28.757Z,-5.10
2022-12-01T23:17:31.078Z,-5.10
2022-12-01T23:20:19.908Z,-5.20
2022-12-01T23:22:47.906Z,-5.10
2022-12-01T23:25:19.534Z,-5.20
2022-12-01T23:27:50.703Z,-5.20
2022-12-01T23:30:19.606Z,-5.20
2022-12-01T23:32:53.691Z,-5.20
2022-12-01T23:35:20.568Z,-5.10
2022-12-01T23:37:48.560Z,-5.10
2022-12-01T23:40:19.425Z,-5.10
2022-12-01T23:42:46.679Z,-5.00
2022-12-01T23:45:21.765Z,-4.90
2022-12-01T23:47:49.359Z,-4.90
2022-12-01T23:50:24.945Z,-4.90
2022-12-01T23:52:52.523Z,-4.80
2022-12-01T23:55:31.076Z,-4.80
2022-12-01T23:57:59.219Z,-4.80
